Gainesville, Missouri
Current Conditions -  °F | °C
As of 11:53 PM on Saturday 25 Oct 2014 (Local Time) from KBPK Reporting Station
Clear Clear  
Wind Chill: 62°   Ceiling: Unl
Heat Index: 62°   Visibility: 7mi
Dew Point: 61°   Wind: 3mph
Humidity: 96%   Direction: 180°S
Pressure: 30.01"   Gusts: NA
Location:  36.6°N, 92.43°W
Report Text: KBPK 260453Z AUTO 18003KT 7SM CLR 17/16 A3001 RMK AO2 SLP154 T01670161
Loading
Personal Weather Stations






























Interactive Weather Map
Tropical Storm Tracking
New forecast layout! Learn more

10-Day Weather Forecast

Advertisements
Track Severe Weather on mobile